createdAt,value
2022-12-16T00:01:35.725Z,-2.64
2022-12-16T00:04:02.885Z,-2.71
2022-12-16T00:06:32.359Z,-2.75
2022-12-16T00:09:00.564Z,-2.79
2022-12-16T00:11:28.438Z,-2.87
2022-12-16T00:13:55.437Z,-2.79
2022-12-16T00:16:22.673Z,-2.85
2022-12-16T00:18:49.848Z,-2.97
2022-12-16T00:21:20.141Z,-2.98
2022-12-16T00:23:47.837Z,-3.01
2022-12-16T00:26:14.881Z,-3.07
2022-12-16T00:28:43.709Z,-3.13
2022-12-16T00:31:11.369Z,-3.15
2022-12-16T00:33:38.934Z,-3.21
2022-12-16T00:36:07.797Z,-3.27
2022-12-16T00:38:35.943Z,-3.29
2022-12-16T00:41:03.320Z,-3.25
2022-12-16T00:43:30.737Z,-3.28
2022-12-16T00:45:58.196Z,-3.27
2022-12-16T00:48:25.610Z,-3.30
2022-12-16T00:50:54.933Z,-3.31
2022-12-16T00:53:23.923Z,-3.41
2022-12-16T00:55:51.733Z,-3.34
2022-12-16T00:58:19.059Z,-3.37
2022-12-16T01:00:46.242Z,-3.34
2022-12-16T01:03:17.963Z,-3.33
2022-12-16T01:05:48.661Z,-3.27
2022-12-16T01:08:15.640Z,-3.28
2022-12-16T01:10:42.654Z,-3.18
2022-12-16T01:13:09.879Z,-3.09
2022-12-16T01:15:37.646Z,-3.03
2022-12-16T01:18:07.853Z,-3.00
2022-12-16T01:20:36.048Z,-2.96
2022-12-16T01:23:03.019Z,-2.96
2022-12-16T01:25:30.167Z,-2.97
2022-12-16T01:27:57.356Z,-2.90
2022-12-16T01:30:24.819Z,-2.87
2022-12-16T01:32:51.809Z,-2.86
2022-12-16T01:35:51.508Z,-2.83
2022-12-16T01:38:09.674Z,-2.78
2022-12-16T01:40:36.814Z,-2.77
2022-12-16T01:43:12.486Z,-2.81
2022-12-16T01:45:39.920Z,-2.67
2022-12-16T01:48:14.884Z,-2.64
2022-12-16T01:50:42.602Z,-2.63
2022-12-16T01:53:10.020Z,-2.61
2022-12-16T01:55:46.745Z,-2.55
2022-12-16T01:58:21.002Z,-2.57
2022-12-16T02:00:48.628Z,-2.47
2022-12-16T02:03:16.322Z,-2.29
2022-12-16T02:05:45.907Z,-2.10
2022-12-16T02:08:15.881Z,-1.99
2022-12-16T02:10:42.809Z,-1.84
2022-12-16T02:13:40.995Z,-1.73
2022-12-16T02:16:18.774Z,-1.65
2022-12-16T02:18:57.911Z,-1.58
2022-12-16T02:21:30.769Z,-1.51
2022-12-16T02:24:33.183Z,-1.39
2022-12-16T02:27:19.208Z,-1.30
2022-12-16T02:30:17.416Z,-1.22
2022-12-16T02:33:22.257Z,-1.15
2022-12-16T02:36:11.045Z,-1.09
2022-12-16T02:38:59.754Z,-1.12
2022-12-16T02:41:42.326Z,-1.07
2022-12-16T02:44:11.742Z,-1.10
2022-12-16T02:46:53.099Z,-1.14
2022-12-16T02:49:22.433Z,-1.13
2022-12-16T02:51:50.027Z,-1.15
2022-12-16T02:54:17.908Z,-1.15
2022-12-16T02:56:52.652Z,-1.16
2022-12-16T02:59:47.396Z,-1.18
2022-12-16T03:02:30.429Z,-1.20
2022-12-16T03:05:18.516Z,-1.22
2022-12-16T03:07:48.479Z,-1.22
2022-12-16T03:10:19.488Z,-1.21
2022-12-16T03:12:47.058Z,-1.21
2022-12-16T03:15:19.684Z,-1.21
2022-12-16T03:17:49.167Z,-1.23
2022-12-16T03:20:21.948Z,-1.21
2022-12-16T03:22:52.193Z,-1.21
2022-12-16T03:25:21.231Z,-1.22
2022-12-16T03:27:59.002Z,-1.29
2022-12-16T03:30:42.107Z,-1.23
2022-12-16T03:33:21.795Z,-1.23
2022-12-16T03:36:02.262Z,-1.21
2022-12-16T03:38:32.530Z,-1.20
2022-12-16T03:41:01.372Z,-1.26
2022-12-16T03:43:28.579Z,-1.20
2022-12-16T03:46:01.837Z,-1.21
2022-12-16T03:48:28.944Z,-1.22
2022-12-16T03:50:56.012Z,-1.22
2022-12-16T03:53:26.389Z,-1.33
2022-12-16T03:55:54.545Z,-1.32
2022-12-16T03:58:21.891Z,-1.25
2022-12-16T04:00:49.029Z,-1.25
2022-12-16T04:03:16.274Z,-1.28
2022-12-16T04:05:45.869Z,-1.30
2022-12-16T04:08:13.064Z,-1.25
2022-12-16T04:10:58.401Z,-1.25
2022-12-16T04:13:43.735Z,-1.26
2022-12-16T04:16:34.981Z,-1.26
2022-12-16T04:19:21.792Z,-1.32
2022-12-16T04:22:07.648Z,-1.28
2022-12-16T04:24:36.817Z,-1.30
2022-12-16T04:27:22.771Z,-1.31
2022-12-16T04:30:08.366Z,-1.33
2022-12-16T04:32:54.472Z,-1.33
2022-12-16T04:35:40.206Z,-1.35
2022-12-16T04:38:26.155Z,-1.34
2022-12-16T04:41:12.085Z,-1.34
2022-12-16T04:43:58.481Z,-1.39
2022-12-16T04:46:43.986Z,-1.30
2022-12-16T04:49:29.903Z,-1.30
2022-12-16T04:52:15.827Z,-1.29
2022-12-16T04:55:01.761Z,-1.27
2022-12-16T04:57:47.149Z,-1.34
2022-12-16T05:00:33.191Z,-1.30
2022-12-16T05:03:18.694Z,-1.31
2022-12-16T05:06:04.382Z,-1.31
2022-12-16T05:08:49.719Z,-1.39
2022-12-16T05:11:35.740Z,-1.30
2022-12-16T05:14:21.859Z,-1.39
2022-12-16T05:17:07.711Z,-1.37
2022-12-16T05:19:54.824Z,-1.38
2022-12-16T05:22:40.916Z,-1.44
2022-12-16T05:25:27.254Z,-1.47
2022-12-16T05:28:13.170Z,-1.54
2022-12-16T05:30:59.191Z,-1.60
2022-12-16T05:33:44.678Z,-1.76
2022-12-16T05:36:30.017Z,-1.75
2022-12-16T05:39:23.422Z,-1.85
2022-12-16T05:42:09.906Z,-1.94
2022-12-16T05:44:55.242Z,-2.02
2022-12-16T05:47:40.964Z,-2.10
2022-12-16T05:50:26.934Z,-2.20
2022-12-16T05:53:14.406Z,-2.21
2022-12-16T05:56:01.385Z,-2.26
2022-12-16T05:58:47.769Z,-2.32
2022-12-16T06:01:33.528Z,-2.41
2022-12-16T06:04:19.626Z,-2.48
2022-12-16T06:07:06.956Z,-2.61
2022-12-16T06:09:56.531Z,-2.66
2022-12-16T06:12:43.066Z,-2.72
2022-12-16T06:15:32.066Z,-2.77
2022-12-16T06:18:17.534Z,-2.80
2022-12-16T06:21:03.047Z,-2.86
2022-12-16T06:23:48.735Z,-2.88
2022-12-16T06:26:35.309Z,-3.00
2022-12-16T06:29:20.820Z,-2.95
2022-12-16T06:32:06.725Z,-3.09
2022-12-16T06:34:52.258Z,-3.02
2022-12-16T06:37:37.670Z,-3.06
2022-12-16T06:40:23.769Z,-3.07
2022-12-16T06:43:09.140Z,-3.09
2022-12-16T06:45:55.501Z,-3.06
2022-12-16T06:48:44.502Z,-3.04
2022-12-16T06:51:30.056Z,-3.05
2022-12-16T06:54:15.326Z,-3.14
2022-12-16T06:57:00.736Z,-3.27
2022-12-16T06:59:46.324Z,-3.23
2022-12-16T07:02:31.768Z,-3.29
2022-12-16T07:05:17.183Z,-3.37
2022-12-16T07:08:10.419Z,-3.45
2022-12-16T07:11:03.394Z,-3.50
2022-12-16T07:13:55.149Z,-3.45
2022-12-16T07:16:41.292Z,-3.34
2022-12-16T07:19:26.765Z,-3.26
2022-12-16T07:22:12.381Z,-3.24
2022-12-16T07:24:57.789Z,-3.18
2022-12-16T07:27:43.289Z,-3.11
2022-12-16T07:30:30.125Z,-3.14
2022-12-16T07:33:15.499Z,-3.15
2022-12-16T07:36:01.799Z,-3.14
2022-12-16T07:38:47.228Z,-3.22
2022-12-16T07:41:32.672Z,-3.20
2022-12-16T07:44:18.351Z,-3.26
2022-12-16T07:47:03.625Z,-3.25
2022-12-16T07:49:49.679Z,-3.23
2022-12-16T07:52:35.424Z,-3.22
2022-12-16T07:55:21.028Z,-3.21
2022-12-16T07:58:10.276Z,-3.19
2022-12-16T08:00:55.625Z,-3.16
2022-12-16T08:03:41.860Z,-3.13
2022-12-16T08:06:27.436Z,-3.14
2022-12-16T08:09:13.208Z,-3.18
2022-12-16T08:11:58.629Z,-3.20
2022-12-16T08:14:44.107Z,-3.14
2022-12-16T08:17:29.912Z,-3.11
2022-12-16T08:20:15.889Z,-3.09
2022-12-16T08:23:01.354Z,-3.00
2022-12-16T08:25:47.359Z,-2.94
2022-12-16T08:28:33.337Z,-2.91
2022-12-16T08:31:19.013Z,-2.77
2022-12-16T08:34:04.873Z,-2.75
2022-12-16T08:36:51.496Z,-2.74
2022-12-16T08:39:37.036Z,-2.67
2022-12-16T08:42:23.029Z,-2.59
2022-12-16T08:45:08.451Z,-2.56
2022-12-16T08:47:55.451Z,-2.42
2022-12-16T08:50:41.754Z,-2.38
2022-12-16T08:53:47.497Z,-2.34
2022-12-16T08:56:33.400Z,-2.30
2022-12-16T08:59:19.231Z,-2.25
2022-12-16T09:02:05.963Z,-2.21
2022-12-16T09:04:52.073Z,-2.24
2022-12-16T09:07:41.453Z,-2.10
2022-12-16T09:10:27.226Z,-2.02
2022-12-16T09:13:12.713Z,-1.96
2022-12-16T09:15:58.598Z,-1.88
2022-12-16T09:18:44.399Z,-1.79
2022-12-16T09:21:33.211Z,-1.77
2022-12-16T09:24:19.499Z,-1.65
2022-12-16T09:27:06.347Z,-1.62
2022-12-16T09:29:51.773Z,-1.47
2022-12-16T09:32:39.343Z,-1.36
2022-12-16T09:35:26.275Z,-1.30
2022-12-16T09:38:12.262Z,-1.28
2022-12-16T09:41:00.428Z,-1.28
2022-12-16T09:43:50.217Z,-1.17
2022-12-16T09:46:50.299Z,-1.12
2022-12-16T09:49:55.024Z,-1.03
2022-12-16T09:52:43.054Z,-0.87
2022-12-16T09:55:45.243Z,-0.89
2022-12-16T09:58:32.174Z,-0.73
2022-12-16T10:01:18.406Z,-0.70
2022-12-16T10:04:04.192Z,-0.56
2022-12-16T10:06:56.550Z,-0.44
2022-12-16T10:10:04.021Z,-0.33
2022-12-16T10:13:17.796Z,-0.26
2022-12-16T10:16:12.943Z,-0.22
2022-12-16T10:19:11.110Z,-0.10
2022-12-16T10:22:06.769Z,-0.04
2022-12-16T10:25:03.048Z,0.07
2022-12-16T10:28:02.334Z,0.08
2022-12-16T10:30:48.477Z,0.15
2022-12-16T10:33:35.716Z,0.18
2022-12-16T10:36:21.917Z,0.24
2022-12-16T10:39:19.535Z,0.30
2022-12-16T10:42:10.507Z,0.34
2022-12-16T10:44:59.339Z,0.36
2022-12-16T10:47:44.687Z,0.36
2022-12-16T10:50:33.657Z,0.34
2022-12-16T10:53:23.680Z,0.40
2022-12-16T10:56:46.548Z,0.45
2022-12-16T10:59:32.720Z,0.45
2022-12-16T11:02:22.130Z,0.50
2022-12-16T11:05:08.768Z,0.57
2022-12-16T11:08:08.751Z,0.60
2022-12-16T11:11:02.573Z,0.63
2022-12-16T11:13:53.955Z,0.60
2022-12-16T11:16:48.059Z,0.62
2022-12-16T11:19:45.412Z,0.66
2022-12-16T11:22:36.417Z,0.70
2022-12-16T11:25:31.191Z,0.69
2022-12-16T11:28:36.526Z,0.70
2022-12-16T11:31:32.133Z,0.70
2022-12-16T11:34:21.090Z,0.69
2022-12-16T11:37:11.035Z,0.67
2022-12-16T11:39:58.733Z,0.69
2022-12-16T11:42:50.314Z,0.68
2022-12-16T11:45:39.243Z,0.70
2022-12-16T11:48:55.283Z,0.68
2022-12-16T11:51:43.060Z,0.69
2022-12-16T11:54:38.114Z,0.73
2022-12-16T11:57:33.704Z,0.76
2022-12-16T12:00:21.115Z,0.78
2022-12-16T12:03:09.369Z,0.75
2022-12-16T12:06:07.446Z,0.73
2022-12-16T12:09:26.928Z,0.72
2022-12-16T12:12:31.428Z,0.75
2022-12-16T12:15:47.322Z,0.79
2022-12-16T12:18:42.274Z,0.79
2022-12-16T12:21:43.983Z,0.79
2022-12-16T12:25:13.618Z,0.82
2022-12-16T12:28:14.392Z,0.75
2022-12-16T12:31:18.838Z,0.81
2022-12-16T12:34:25.541Z,0.79
2022-12-16T12:37:26.130Z,0.80
2022-12-16T12:40:22.847Z,0.77
2022-12-16T12:43:13.670Z,0.71
2022-12-16T12:46:40.974Z,0.73
2022-12-16T12:49:45.639Z,0.71
2022-12-16T12:52:36.920Z,0.69
2022-12-16T12:56:07.229Z,0.69
2022-12-16T12:58:55.552Z,0.69
2022-12-16T13:01:49.248Z,0.59
2022-12-16T13:04:38.688Z,0.62
2022-12-16T13:07:30.049Z,0.59
2022-12-16T13:10:39.253Z,0.69
2022-12-16T13:13:34.773Z,0.70
2022-12-16T13:16:23.519Z,0.70
2022-12-16T13:19:47.797Z,0.54
2022-12-16T13:22:48.849Z,0.67
2022-12-16T13:26:09.225Z,0.67
2022-12-16T13:28:58.781Z,0.63
2022-12-16T13:31:47.034Z,0.64
2022-12-16T13:34:38.525Z,0.65
2022-12-16T13:37:31.179Z,0.68
2022-12-16T13:40:37.064Z,0.73
2022-12-16T13:43:24.065Z,0.77
2022-12-16T13:46:15.985Z,0.78
2022-12-16T13:49:01.954Z,0.74
2022-12-16T13:51:56.622Z,0.86
2022-12-16T13:54:51.522Z,0.83
2022-12-16T13:57:40.367Z,0.80
2022-12-16T14:00:37.539Z,0.82
2022-12-16T14:03:30.867Z,0.87
2022-12-16T14:06:18.726Z,0.78
2022-12-16T14:09:08.522Z,0.83
2022-12-16T14:12:43.722Z,0.90
2022-12-16T14:15:44.740Z,0.90
2022-12-16T14:19:21.481Z,0.90
2022-12-16T14:22:18.783Z,0.81
2022-12-16T14:25:05.701Z,0.79
2022-12-16T14:27:53.735Z,0.72
2022-12-16T14:30:42.906Z,0.73
2022-12-16T14:33:44.127Z,0.69
2022-12-16T14:36:45.039Z,0.71
2022-12-16T14:39:41.558Z,0.68
2022-12-16T14:42:46.822Z,0.66
2022-12-16T14:45:38.549Z,0.59
2022-12-16T14:48:42.085Z,0.56
2022-12-16T14:51:57.040Z,0.57
2022-12-16T14:54:56.141Z,0.56
2022-12-16T14:57:45.140Z,0.54
2022-12-16T15:00:32.522Z,0.48
2022-12-16T15:03:18.307Z,0.45
2022-12-16T15:06:05.916Z,0.40
2022-12-16T15:08:55.856Z,0.39
2022-12-16T15:11:43.466Z,0.35
2022-12-16T15:14:35.632Z,0.26
2022-12-16T15:17:21.954Z,0.25
2022-12-16T15:20:11.381Z,0.18
2022-12-16T15:23:05.993Z,0.03
2022-12-16T15:25:52.016Z,0.10
2022-12-16T15:29:07.337Z,0.09
2022-12-16T15:32:03.330Z,0.06
2022-12-16T15:35:06.292Z,0.03
2022-12-16T15:38:04.274Z,0.03
2022-12-16T15:40:53.030Z,-0.03
2022-12-16T15:43:41.961Z,-0.08
2022-12-16T15:46:38.490Z,-0.13
2022-12-16T15:49:35.781Z,-0.17
2022-12-16T15:52:21.725Z,-0.30
2022-12-16T15:55:11.239Z,-0.37
2022-12-16T15:57:57.650Z,-0.37
2022-12-16T16:00:46.614Z,-0.36
2022-12-16T16:03:39.098Z,-0.42
2022-12-16T16:06:37.623Z,-0.52
2022-12-16T16:09:32.957Z,-0.55
2022-12-16T16:12:18.562Z,-0.59
2022-12-16T16:15:04.133Z,-0.61
2022-12-16T16:17:50.118Z,-0.61
2022-12-16T16:20:37.202Z,-0.63
2022-12-16T16:23:23.186Z,-0.65
2022-12-16T16:26:08.855Z,-0.64
2022-12-16T16:28:57.769Z,-0.68
2022-12-16T16:31:43.891Z,-0.69
2022-12-16T16:34:32.670Z,-0.75
2022-12-16T16:37:18.365Z,-0.74
2022-12-16T16:40:04.424Z,-0.75
2022-12-16T16:42:50.518Z,-0.71
2022-12-16T16:45:39.049Z,-0.72
2022-12-16T16:48:33.681Z,-0.72
2022-12-16T16:51:20.657Z,-0.68
2022-12-16T16:54:07.828Z,-0.67
2022-12-16T16:56:56.351Z,-0.68
2022-12-16T16:59:42.732Z,-0.70
2022-12-16T17:02:42.630Z,-0.70
2022-12-16T17:05:32.076Z,-0.71
2022-12-16T17:08:17.987Z,-0.74
2022-12-16T17:11:06.792Z,-0.73
2022-12-16T17:13:52.786Z,-0.70
2022-12-16T17:16:39.334Z,-0.72
2022-12-16T17:19:30.701Z,-0.70
2022-12-16T17:34:51.813Z,-0.54
2022-12-16T17:37:41.138Z,-0.56
2022-12-16T17:40:27.824Z,-0.63
2022-12-16T17:43:13.345Z,-0.57
2022-12-16T17:46:01.828Z,-0.58
2022-12-16T17:48:47.334Z,-0.64
2022-12-16T17:51:32.892Z,-0.68
2022-12-16T17:54:25.003Z,-0.66
2022-12-16T17:57:13.618Z,-0.73
2022-12-16T17:59:59.794Z,-0.73
2022-12-16T18:02:46.084Z,-0.74
2022-12-16T18:05:38.835Z,-0.76
2022-12-16T18:08:29.438Z,-0.75
2022-12-16T18:11:16.549Z,-0.76
2022-12-16T18:14:16.211Z,-0.80
2022-12-16T18:17:01.624Z,-0.85
2022-12-16T18:19:47.484Z,-0.81
2022-12-16T18:22:35.610Z,-0.88
2022-12-16T18:25:21.435Z,-0.89
2022-12-16T18:28:11.926Z,-0.84
2022-12-16T18:30:57.670Z,-0.87
2022-12-16T18:33:43.276Z,-0.97
2022-12-16T18:36:29.291Z,-1.02
2022-12-16T18:39:14.839Z,-0.96
2022-12-16T18:42:06.242Z,-0.99
2022-12-16T18:44:57.543Z,-0.94
2022-12-16T18:47:46.774Z,-0.92
2022-12-16T18:50:37.485Z,-0.96
2022-12-16T18:53:41.933Z,-0.93
2022-12-16T18:56:28.320Z,-0.94
2022-12-16T18:59:14.042Z,-0.96
2022-12-16T19:01:59.965Z,-0.98
2022-12-16T19:04:45.906Z,-0.99
2022-12-16T19:07:33.750Z,-1.04
2022-12-16T19:10:20.163Z,-1.02
2022-12-16T19:13:07.380Z,-1.03
2022-12-16T19:15:53.139Z,-0.99
2022-12-16T19:18:38.971Z,-0.98
2022-12-16T19:21:25.555Z,-0.98
2022-12-16T19:24:11.500Z,-1.03
2022-12-16T19:26:57.364Z,-0.98
2022-12-16T19:29:43.581Z,-0.97
2022-12-16T19:32:29.765Z,-0.97
2022-12-16T19:35:15.278Z,-1.00
2022-12-16T19:38:00.996Z,-0.97
2022-12-16T19:40:46.817Z,-0.98
2022-12-16T19:43:32.598Z,-1.03
2022-12-16T19:46:18.472Z,-1.03
2022-12-16T19:49:04.778Z,-1.03
2022-12-16T19:51:51.932Z,-1.03
2022-12-16T19:54:37.879Z,-1.05
2022-12-16T19:57:23.763Z,-1.07
2022-12-16T20:00:09.907Z,-1.10
2022-12-16T20:02:56.705Z,-1.13
2022-12-16T20:05:42.971Z,-1.07
2022-12-16T20:08:28.833Z,-1.07
2022-12-16T20:11:14.917Z,-1.07
2022-12-16T20:14:00.718Z,-1.08
2022-12-16T20:16:46.957Z,-1.14
2022-12-16T20:19:32.924Z,-1.08
2022-12-16T20:22:18.965Z,-1.11
2022-12-16T20:25:04.449Z,-1.07
2022-12-16T20:27:49.727Z,-1.04
2022-12-16T20:30:36.977Z,-1.04
2022-12-16T20:33:23.031Z,-1.03
2022-12-16T20:36:19.625Z,-1.03
2022-12-16T20:39:07.225Z,-1.04
2022-12-16T20:41:56.115Z,-1.02
2022-12-16T20:44:42.255Z,-1.04
2022-12-16T20:47:28.270Z,-1.00
2022-12-16T20:50:14.148Z,-0.98
2022-12-16T20:52:59.948Z,-0.96
2022-12-16T20:55:45.886Z,-0.93
2022-12-16T20:58:36.770Z,-0.93
2022-12-16T21:01:23.218Z,-0.93
2022-12-16T21:04:09.123Z,-0.93
2022-12-16T21:06:56.060Z,-0.97
2022-12-16T21:09:46.611Z,-0.96
2022-12-16T21:12:32.285Z,-0.97
2022-12-16T21:15:18.075Z,-0.96
2022-12-16T21:18:04.068Z,-0.98
2022-12-16T21:20:49.801Z,-0.98
2022-12-16T21:23:35.942Z,-0.95
2022-12-16T21:26:21.743Z,-1.02
2022-12-16T21:29:07.909Z,-0.93
2022-12-16T21:31:53.576Z,-0.92
2022-12-16T21:34:39.304Z,-0.91
2022-12-16T21:37:26.230Z,-0.91
2022-12-16T21:40:11.622Z,-0.91
2022-12-16T21:42:57.328Z,-0.92
2022-12-16T21:45:42.989Z,-1.02
2022-12-16T21:48:30.104Z,-0.96
2022-12-16T21:51:15.533Z,-0.91
2022-12-16T21:54:06.371Z,-0.92
2022-12-16T21:56:53.200Z,-0.93
2022-12-16T21:59:42.525Z,-0.92
2022-12-16T22:02:31.975Z,-0.91
2022-12-16T22:05:17.711Z,-1.00
2022-12-16T22:08:03.424Z,-0.91
2022-12-16T22:10:49.015Z,-0.93
2022-12-16T22:13:36.064Z,-0.96
2022-12-16T22:16:22.132Z,-0.91
2022-12-16T22:19:14.303Z,-0.91
2022-12-16T22:21:59.715Z,-0.92
2022-12-16T22:24:45.062Z,-0.99
2022-12-16T22:27:30.510Z,-0.96
2022-12-16T22:30:15.947Z,-0.96
2022-12-16T22:33:01.716Z,-1.01
2022-12-16T22:35:47.182Z,-0.97
2022-12-16T22:38:32.593Z,-1.01
2022-12-16T22:41:19.229Z,-0.94
2022-12-16T22:44:06.234Z,-0.96
2022-12-16T22:47:08.842Z,-0.98
2022-12-16T22:49:56.037Z,-1.01
2022-12-16T22:52:42.163Z,-1.03
2022-12-16T22:55:27.730Z,-1.01
2022-12-16T22:58:13.955Z,-1.04
2022-12-16T23:01:04.019Z,-1.05
2022-12-16T23:03:56.506Z,-1.07
2022-12-16T23:06:43.772Z,-1.12
2022-12-16T23:09:30.358Z,-1.11
2022-12-16T23:12:16.377Z,-1.13
2022-12-16T23:15:02.086Z,-1.15
2022-12-16T23:17:47.648Z,-1.14
2022-12-16T23:20:33.353Z,-1.15
2022-12-16T23:23:18.934Z,-1.16
2022-12-16T23:26:17.634Z,-1.18
2022-12-16T23:29:03.442Z,-1.26
2022-12-16T23:31:49.046Z,-1.20
2022-12-16T23:34:34.583Z,-1.25
2022-12-16T23:37:20.060Z,-1.20
2022-12-16T23:40:07.640Z,-1.18
2022-12-16T23:42:53.057Z,-1.21
2022-12-16T23:45:41.675Z,-1.21
2022-12-16T23:48:28.663Z,-1.25
2022-12-16T23:51:14.632Z,-1.24
2022-12-16T23:54:00.563Z,-1.24
2022-12-16T23:56:46.119Z,-1.25
2022-12-16T23:59:32.098Z,-1.26
